Time;durP1;ratioP1;P1;durP2;ratioP2;P2;SDS_P1;SDS_P2;PMS_P1;PMS_P2;Temp;Humidity;BMP_temperature;BMP_pressure;BME280_temperature;BME280_humidity;BME280_pressure;Samples;Min_cycle;Max_cycle;Signal;HPM_P1;HPM_P2
2022/01/18 00:01:58;;;;;;;55.55;36.75;;;;;;;;;;4996241;28;20058;-75
2022/01/18 00:04:27;;;;;;;54.70;35.63;;;;;;;;;;4995741;28;20032;-74
2022/01/18 00:06:53;;;;;;;55.10;35.33;;;;;;;;;;4995920;28;20022;-74
2022/01/18 00:09:22;;;;;;;49.83;32.37;;;;;;;;;;4995953;28;20073;-76
2022/01/18 00:11:59;;;;;;;49.43;32.00;;;;;;;;;;4995943;28;20019;-75
2022/01/18 00:14:38;;;;;;;51.03;30.07;;;;;;;;;;4995978;28;20038;-75
2022/01/18 00:19:33;;;;;;;48.97;30.40;;;;;;;;;;4995821;28;20027;-76
2022/01/18 00:24:31;;;;;;;51.83;30.83;;;;;;;;;;4995591;28;20125;-75
2022/01/18 00:26:57;;;;;;;50.47;31.80;;;;;;;;;;4995987;28;20050;-75
2022/01/18 00:29:25;;;;;;;50.23;31.03;;;;;;;;;;4995546;28;20035;-75
2022/01/18 00:32:04;;;;;;;49.67;30.50;;;;;;;;;;4995502;28;20023;-76
2022/01/18 00:34:34;;;;;;;47.07;30.43;;;;;;;;;;4995304;28;20069;-72
2022/01/18 00:37:23;;;;;;;47.93;30.70;;;;;;;;;;4995432;28;20034;-75
2022/01/18 00:39:46;;;;;;;44.70;29.90;;;;;;;;;;4995077;28;20026;-76
2022/01/18 00:42:12;;;;;;;47.73;30.53;;;;;;;;;;4995443;28;20037;-74
2022/01/18 00:44:38;;;;;;;43.57;28.63;;;;;;;;;;4995467;28;20030;-74
2022/01/18 00:47:04;;;;;;;40.80;28.77;;;;;;;;;;4995261;28;20128;-74
2022/01/18 00:49:32;;;;;;;41.00;26.63;;;;;;;;;;4995223;28;20034;-74
2022/01/18 00:52:03;;;;;;;39.30;24.83;;;;;;;;;;4995239;28;20384;-76
2022/01/18 00:54:36;;;;;;;31.60;20.97;;;;;;;;;;4995128;28;20074;-76
2022/01/18 00:57:02;;;;;;;28.07;20.03;;;;;;;;;;4995004;28;20041;-76
2022/01/18 00:59:28;;;;;;;33.77;23.03;;;;;;;;;;4994806;28;20057;-73
2022/01/18 01:01:55;;;;;;;36.20;25.10;;;;;;;;;;4995046;28;20054;-76
2022/01/18 01:04:24;;;;;;;35.93;24.37;;;;;;;;;;4994909;28;20097;-75
2022/01/18 01:06:50;;;;;;;38.13;25.40;;;;;;;;;;4994648;28;20022;-74
2022/01/18 01:09:16;;;;;;;37.63;24.83;;;;;;;;;;4994716;28;20092;-77
2022/01/18 01:11:42;;;;;;;40.10;26.77;;;;;;;;;;4994724;28;20061;-70
2022/01/18 01:14:12;;;;;;;40.07;25.73;;;;;;;;;;4994444;28;20021;-76
2022/01/18 01:45:53;;;;;;;41.50;27.20;;;;;;;;;;4994214;28;20033;-75
2022/01/18 01:48:20;;;;;;;42.43;27.27;;;;;;;;;;4994204;28;20026;-75
2022/01/18 01:50:54;;;;;;;36.83;25.10;;;;;;;;;;4994162;28;20037;-75
2022/01/18 01:53:21;;;;;;;35.17;23.63;;;;;;;;;;4994142;28;20049;-76
2022/01/18 01:55:48;;;;;;;37.73;24.60;;;;;;;;;;4993830;28;20034;-76
2022/01/18 01:58:14;;;;;;;36.40;23.70;;;;;;;;;;4993354;28;20036;-77
2022/01/18 02:00:45;;;;;;;36.87;24.67;;;;;;;;;;4992345;28;20046;-77
2022/01/18 02:03:11;;;;;;;38.50;24.13;;;;;;;;;;4992197;28;20033;-75
2022/01/18 02:05:37;;;;;;;32.03;20.83;;;;;;;;;;4992669;28;20033;-76
2022/01/18 02:08:07;;;;;;;36.87;23.07;;;;;;;;;;4994075;28;20026;-76
2022/01/18 02:10:33;;;;;;;33.27;22.17;;;;;;;;;;4993807;28;20022;-76
2022/01/18 02:12:59;;;;;;;34.60;22.97;;;;;;;;;;4993467;28;20018;-76
2022/01/18 02:15:25;;;;;;;38.10;24.30;;;;;;;;;;5008671;28;20384;-74
2022/01/18 02:23:23;;;;;;;37.43;22.90;;;;;;;;;;4993927;28;20502;-77
2022/01/18 02:25:49;;;;;;;36.30;23.40;;;;;;;;;;4993655;28;20050;-75
2022/01/18 02:28:16;;;;;;;35.37;23.83;;;;;;;;;;4993357;28;20030;-76
2022/01/18 02:30:44;;;;;;;37.63;23.43;;;;;;;;;;4993663;28;20406;-76
2022/01/18 02:33:10;;;;;;;35.03;23.73;;;;;;;;;;4993799;28;20031;-76
2022/01/18 02:35:37;;;;;;;40.50;24.90;;;;;;;;;;4992847;28;20402;-76
2022/01/18 02:38:04;;;;;;;37.17;22.97;;;;;;;;;;4993548;28;20454;-75
2022/01/18 02:40:30;;;;;;;38.30;24.67;;;;;;;;;;4993487;28;20061;-75
2022/01/18 02:42:59;;;;;;;37.03;25.27;;;;;;;;;;4993390;28;20122;-73
2022/01/18 02:45:26;;;;;;;37.80;24.60;;;;;;;;;;4993484;28;20529;-74
2022/01/18 02:47:52;;;;;;;41.63;26.43;;;;;;;;;;4993492;28;20494;-75
2022/01/18 02:50:18;;;;;;;42.03;25.03;;;;;;;;;;4993390;28;20053;-76
2022/01/18 02:52:44;;;;;;;38.33;23.97;;;;;;;;;;4993243;28;20023;-77
2022/01/18 02:55:10;;;;;;;34.03;23.30;;;;;;;;;;4992980;28;20479;-75
2022/01/18 02:57:51;;;;;;;36.30;23.10;;;;;;;;;;4993347;28;20383;-75
2022/01/18 03:00:26;;;;;;;42.20;25.40;;;;;;;;;;4993451;28;20033;-72
2022/01/18 03:03:13;;;;;;;40.33;25.47;;;;;;;;;;4993353;28;20054;-73
2022/01/18 03:05:40;;;;;;;40.77;26.00;;;;;;;;;;4993394;28;20134;-77
2022/01/18 03:08:08;;;;;;;38.80;24.37;;;;;;;;;;4993276;28;20089;-75
2022/01/18 03:10:34;;;;;;;42.27;25.77;;;;;;;;;;4992972;28;20526;-77
2022/01/18 03:13:00;;;;;;;40.23;25.33;;;;;;;;;;4993102;28;20525;-75
2022/01/18 03:15:26;;;;;;;38.87;25.17;;;;;;;;;;4992972;28;20030;-74
2022/01/18 03:17:52;;;;;;;36.33;23.43;;;;;;;;;;4995748;28;20033;-76
2022/01/18 03:20:19;;;;;;;38.50;24.23;;;;;;;;;;4996697;28;20450;-76
2022/01/18 03:22:48;;;;;;;40.00;23.33;;;;;;;;;;4996709;28;20105;-74
2022/01/18 03:26:16;;;;;;;34.73;22.47;;;;;;;;;;4996647;28;20097;-74
2022/01/18 03:28:10;;;;;;;35.40;22.13;;;;;;;;;;4992004;28;20034;-76
2022/01/18 03:30:38;;;;;;;39.57;23.27;;;;;;;;;;4996651;28;20463;-75
2022/01/18 03:33:06;;;;;;;34.20;22.37;;;;;;;;;;4996610;28;20031;-75
2022/01/18 03:35:32;;;;;;;34.70;23.00;;;;;;;;;;4996487;28;20074;-75
2022/01/18 03:37:58;;;;;;;37.60;23.23;;;;;;;;;;4996554;28;20097;-74
2022/01/18 03:40:25;;;;;;;35.60;22.77;;;;;;;;;;4996666;28;20030;-75
2022/01/18 03:42:51;;;;;;;36.87;23.73;;;;;;;;;;4996572;28;20076;-74
2022/01/18 03:45:29;;;;;;;33.77;22.67;;;;;;;;;;4996554;28;20034;-77
2022/01/18 03:47:58;;;;;;;33.03;21.87;;;;;;;;;;4996116;28;20030;-76
2022/01/18 03:50:24;;;;;;;33.30;22.30;;;;;;;;;;4996231;28;20377;-75
2022/01/18 03:52:50;;;;;;;32.37;22.57;;;;;;;;;;4996036;28;20376;-72
2022/01/18 03:55:20;;;;;;;35.33;22.20;;;;;;;;;;4996133;28;20057;-75
2022/01/18 03:57:46;;;;;;;33.23;22.27;;;;;;;;;;4996239;28;20667;-73
2022/01/18 04:00:14;;;;;;;32.07;21.77;;;;;;;;;;4996415;28;20105;-75
2022/01/18 04:02:40;;;;;;;34.10;22.80;;;;;;;;;;4996093;28;20129;-76
2022/01/18 04:05:07;;;;;;;34.07;23.20;;;;;;;;;;4996032;28;20019;-72
2022/01/18 04:07:33;;;;;;;35.70;22.30;;;;;;;;;;4996160;28;20387;-76
2022/01/18 04:09:59;;;;;;;32.97;21.53;;;;;;;;;;4995933;28;20030;-75
2022/01/18 04:12:25;;;;;;;32.87;21.47;;;;;;;;;;4996024;28;20022;-76
2022/01/18 04:14:51;;;;;;;38.37;21.83;;;;;;;;;;4995711;28;20026;-76
2022/01/18 04:27:52;;;;;;;35.33;22.00;;;;;;;;;;4995420;28;20513;-76
2022/01/18 04:30:18;;;;;;;34.33;23.03;;;;;;;;;;4995737;28;20042;-75
2022/01/18 04:32:44;;;;;;;35.63;22.37;;;;;;;;;;4995616;28;20386;-74
2022/01/18 04:35:10;;;;;;;32.67;22.03;;;;;;;;;;4995261;28;20051;-74
2022/01/18 04:37:36;;;;;;;37.53;22.53;;;;;;;;;;4995425;28;20038;-76
2022/01/18 04:40:11;;;;;;;35.27;21.63;;;;;;;;;;4995474;28;20038;-74
2022/01/18 04:42:59;;;;;;;33.50;22.10;;;;;;;;;;4995290;28;20030;-76
2022/01/18 04:50:58;;;;;;;32.53;21.70;;;;;;;;;;4995586;28;20121;-75
2022/01/18 04:53:25;;;;;;;36.40;22.13;;;;;;;;;;4995434;28;20073;-71
2022/01/18 04:55:55;;;;;;;41.03;22.73;;;;;;;;;;4995136;28;20101;-75
2022/01/18 04:58:21;;;;;;;31.23;19.97;;;;;;;;;;4995150;28;20034;-74
2022/01/18 05:00:49;;;;;;;33.67;21.03;;;;;;;;;;4995042;28;20026;-71
2022/01/18 05:03:15;;;;;;;33.77;20.30;;;;;;;;;;4995059;28;20023;-76
2022/01/18 05:05:41;;;;;;;34.57;21.13;;;;;;;;;;4994795;28;20034;-74
2022/01/18 05:08:12;;;;;;;33.00;21.77;;;;;;;;;;4994773;28;20030;-75
2022/01/18 05:10:38;;;;;;;31.77;20.07;;;;;;;;;;4994870;28;20050;-75
2022/01/18 05:13:16;;;;;;;31.13;19.17;;;;;;;;;;4994866;28;20033;-75
2022/01/18 05:15:52;;;;;;;33.40;19.37;;;;;;;;;;4994922;28;20443;-71
2022/01/18 05:23:19;;;;;;;26.13;18.20;;;;;;;;;;4995120;28;20030;-76
2022/01/18 05:25:46;;;;;;;26.60;16.73;;;;;;;;;;4994469;28;20030;-75
2022/01/18 05:28:12;;;;;;;25.17;15.87;;;;;;;;;;4994752;28;20377;-72
2022/01/18 05:30:39;;;;;;;25.43;15.63;;;;;;;;;;4994604;28;20092;-76
2022/01/18 05:33:05;;;;;;;21.83;14.93;;;;;;;;;;4994519;28;20070;-76
2022/01/18 05:35:31;;;;;;;23.37;14.87;;;;;;;;;;4994361;28;20498;-77
2022/01/18 05:37:57;;;;;;;24.87;16.07;;;;;;;;;;4994621;28;20030;-76
2022/01/18 05:40:23;;;;;;;23.57;15.80;;;;;;;;;;4993702;28;20716;-76
2022/01/18 05:42:49;;;;;;;23.90;14.67;;;;;;;;;;4994281;28;20030;-76
2022/01/18 05:45:16;;;;;;;21.40;15.00;;;;;;;;;;4994217;28;20372;-74
2022/01/18 05:47:42;;;;;;;25.57;16.53;;;;;;;;;;4994206;28;20088;-75
2022/01/18 05:50:08;;;;;;;24.70;16.07;;;;;;;;;;4993919;28;20109;-76
2022/01/18 05:52:35;;;;;;;26.30;15.73;;;;;;;;;;4994220;28;20037;-75
2022/01/18 05:55:01;;;;;;;25.83;16.73;;;;;;;;;;4993934;28;20022;-76
2022/01/18 05:57:27;;;;;;;27.87;18.13;;;;;;;;;;4994104;28;20043;-76
2022/01/18 06:00:00;;;;;;;24.43;16.67;;;;;;;;;;4994228;28;20029;-76
2022/01/18 06:02:48;;;;;;;26.63;16.73;;;;;;;;;;4994162;28;20058;-77
2022/01/18 06:07:59;;;;;;;28.10;17.00;;;;;;;;;;4993819;28;20037;-75
2022/01/18 06:10:25;;;;;;;26.83;17.50;;;;;;;;;;4994182;28;20428;-76
2022/01/18 06:12:51;;;;;;;23.90;16.83;;;;;;;;;;4994030;28;20029;-76
2022/01/18 06:15:18;;;;;;;26.60;16.67;;;;;;;;;;4993930;28;20172;-75
2022/01/18 06:17:44;;;;;;;25.23;16.23;;;;;;;;;;4994224;28;20518;-77
2022/01/18 06:20:11;;;;;;;27.73;15.73;;;;;;;;;;4993496;28;20030;-76
2022/01/18 06:22:37;;;;;;;23.87;14.93;;;;;;;;;;5008914;28;20386;-76
2022/01/18 06:25:03;;;;;;;42.00;16.83;;;;;;;;;;4993598;28;20491;-74
2022/01/18 06:27:29;;;;;;;32.80;14.93;;;;;;;;;;4993827;28;20356;-75
2022/01/18 06:29:55;;;;;;;34.47;14.07;;;;;;;;;;4993646;28;20084;-76
2022/01/18 06:32:22;;;;;;;26.70;12.57;;;;;;;;;;4993514;28;20026;-75
2022/01/18 06:34:48;;;;;;;24.50;12.63;;;;;;;;;;4993250;28;20073;-75
2022/01/18 06:37:14;;;;;;;24.60;12.07;;;;;;;;;;4993546;28;20406;-75
2022/01/18 06:39:40;;;;;;;25.13;13.03;;;;;;;;;;4993732;28;20030;-76
2022/01/18 06:42:07;;;;;;;33.57;12.70;;;;;;;;;;4993308;28;20030;-75
2022/01/18 06:44:33;;;;;;;30.83;11.07;;;;;;;;;;4993215;28;20034;-75
2022/01/18 06:46:59;;;;;;;19.03;11.70;;;;;;;;;;4993686;28;20113;-75
2022/01/18 06:49:25;;;;;;;26.53;12.90;;;;;;;;;;4993854;28;20027;-74
2022/01/18 06:51:51;;;;;;;31.93;13.97;;;;;;;;;;4996217;28;20041;-74
2022/01/18 06:54:18;;;;;;;25.53;15.67;;;;;;;;;;4997195;28;20467;-76
2022/01/18 06:56:47;;;;;;;31.00;17.83;;;;;;;;;;4997670;28;20035;-76
2022/01/18 06:59:13;;;;;;;27.27;16.73;;;;;;;;;;4997593;28;20034;-75
2022/01/18 07:01:40;;;;;;;28.63;17.33;;;;;;;;;;4997394;28;20018;-74
2022/01/18 07:04:06;;;;;;;31.40;18.93;;;;;;;;;;4997227;28;20027;-77
2022/01/18 07:06:33;;;;;;;32.03;20.43;;;;;;;;;;4997145;28;20058;-76
2022/01/18 07:08:59;;;;;;;38.77;22.20;;;;;;;;;;4996993;28;20415;-76
2022/01/18 07:11:25;;;;;;;35.87;23.10;;;;;;;;;;4996973;28;20022;-77
2022/01/18 07:13:51;;;;;;;40.07;24.93;;;;;;;;;;4997351;28;20531;-75
2022/01/18 07:16:17;;;;;;;38.67;23.80;;;;;;;;;;4997009;28;20038;-72
2022/01/18 07:18:43;;;;;;;36.87;24.10;;;;;;;;;;4996948;28;20391;-74
2022/01/18 07:21:10;;;;;;;43.80;25.23;;;;;;;;;;5011947;28;20458;-75
2022/01/18 07:23:39;;;;;;;38.70;22.77;;;;;;;;;;4996708;28;20372;-78
2022/01/18 07:26:05;;;;;;;36.63;23.03;;;;;;;;;;4996665;28;20491;-75
2022/01/18 07:28:31;;;;;;;36.93;23.10;;;;;;;;;;4996921;28;20390;-76
2022/01/18 07:30:57;;;;;;;35.50;22.07;;;;;;;;;;4996713;28;20101;-79
2022/01/18 07:33:25;;;;;;;34.10;20.87;;;;;;;;;;4996280;28;20447;-79
2022/01/18 07:35:51;;;;;;;37.10;21.97;;;;;;;;;;4996119;28;20491;-72
2022/01/18 07:38:18;;;;;;;33.70;21.20;;;;;;;;;;4996605;28;20026;-74
2022/01/18 07:40:45;;;;;;;32.03;21.00;;;;;;;;;;4996617;28;20403;-74
2022/01/18 07:43:15;;;;;;;36.30;20.60;;;;;;;;;;4996295;28;20080;-76
2022/01/18 07:45:42;;;;;;;35.93;20.97;;;;;;;;;;4996203;28;20026;-74
2022/01/18 07:48:09;;;;;;;30.50;20.77;;;;;;;;;;4996857;28;20024;-72
2022/01/18 07:50:35;;;;;;;29.20;19.63;;;;;;;;;;4996673;28;20372;-72
2022/01/18 07:53:01;;;;;;;33.67;19.67;;;;;;;;;;4996073;28;20033;-74
2022/01/18 07:55:27;;;;;;;29.53;19.00;;;;;;;;;;4996078;28;20122;-76
2022/01/18 07:57:54;;;;;;;28.57;17.97;;;;;;;;;;4996569;28;20395;-76
2022/01/18 08:00:20;;;;;;;28.93;17.47;;;;;;;;;;4995911;28;20042;-75
2022/01/18 08:02:46;;;;;;;32.77;17.50;;;;;;;;;;4995149;28;20084;-73
2022/01/18 08:05:13;;;;;;;29.50;17.17;;;;;;;;;;4995840;28;20203;-76
2022/01/18 08:07:39;;;;;;;26.73;14.77;;;;;;;;;;4993667;28;20030;-69
2022/01/18 08:10:07;;;;;;;28.63;14.27;;;;;;;;;;4993481;28;20034;-70
2022/01/18 08:12:33;;;;;;;22.37;13.40;;;;;;;;;;4993873;28;20022;-67
2022/01/18 08:15:12;;;;;;;20.07;12.77;;;;;;;;;;4995639;28;20038;-70
2022/01/18 08:17:39;;;;;;;17.80;10.30;;;;;;;;;;4995938;28;20399;-69
2022/01/18 08:20:05;;;;;;;28.53;14.73;;;;;;;;;;4995698;28;20031;-69
2022/01/18 08:22:31;;;;;;;26.87;13.93;;;;;;;;;;4995857;28;20058;-70
2022/01/18 08:24:57;;;;;;;20.97;12.57;;;;;;;;;;4995326;28;20035;-69
2022/01/18 08:27:23;;;;;;;21.27;12.73;;;;;;;;;;4995385;28;20019;-69
2022/01/18 08:29:49;;;;;;;20.57;11.73;;;;;;;;;;4995303;28;20101;-69
2022/01/18 08:32:16;;;;;;;17.63;10.57;;;;;;;;;;4995435;28;20101;-69
2022/01/18 08:34:42;;;;;;;17.97;9.97;;;;;;;;;;4993621;28;20057;-70
2022/01/18 08:37:08;;;;;;;16.30;9.90;;;;;;;;;;4995108;28;20034;-70
2022/01/18 08:39:34;;;;;;;27.03;9.60;;;;;;;;;;4993767;28;20545;-70
2022/01/18 08:42:00;;;;;;;13.43;8.30;;;;;;;;;;4992505;28;20073;-70
2022/01/18 08:44:26;;;;;;;15.30;8.93;;;;;;;;;;4993036;28;20027;-70
2022/01/18 08:46:52;;;;;;;29.47;9.20;;;;;;;;;;4995017;28;20053;-70
2022/01/18 08:49:18;;;;;;;20.03;8.90;;;;;;;;;;4995116;28;20093;-68
2022/01/18 08:51:45;;;;;;;20.90;9.13;;;;;;;;;;4995257;28;20030;-70
2022/01/18 08:54:11;;;;;;;14.87;8.00;;;;;;;;;;5009990;28;20033;-70
2022/01/18 08:56:37;;;;;;;22.40;8.20;;;;;;;;;;4994612;28;20038;-70
2022/01/18 08:59:03;;;;;;;19.13;9.13;;;;;;;;;;4994595;28;20027;-70
2022/01/18 09:01:29;;;;;;;25.53;9.70;;;;;;;;;;4995077;28;20482;-70
2022/01/18 09:03:55;;;;;;;15.97;7.70;;;;;;;;;;4994857;28;20092;-71
2022/01/18 09:06:23;;;;;;;13.53;7.50;;;;;;;;;;4994807;28;20120;-78
2022/01/18 09:08:56;;;;;;;10.60;6.60;;;;;;;;;;5010162;28;20086;-75
2022/01/18 09:11:23;;;;;;;11.55;6.95;;;;;;;;;;4995213;28;20030;-77
2022/01/18 09:13:50;;;;;;;16.03;6.57;;;;;;;;;;4994313;28;20034;-75
2022/01/18 09:16:16;;;;;;;12.50;6.47;;;;;;;;;;4994124;28;20499;-76
2022/01/18 09:18:43;;;;;;;11.67;6.83;;;;;;;;;;4995015;28;20030;-70
2022/01/18 09:21:09;;;;;;;10.27;6.17;;;6.00;70.90;;;;;;4994688;28;20031;-69
2022/01/18 09:23:36;;;;;;;9.80;5.87;;;6.00;70.60;;;;;;4994835;28;20109;-69
2022/01/18 09:26:01;;;;;;;7.80;5.50;;;6.20;70.00;;;;;;4994679;28;20054;-70
2022/01/18 09:28:27;;;;;;;13.07;7.30;;;6.30;69.80;;;;;;4994481;28;20065;-70
2022/01/18 09:30:53;;;;;;;12.07;7.00;;;6.40;69.30;;;;;;4994549;28;20044;-70
2022/01/18 09:33:18;;;;;;;10.50;6.63;;;6.60;69.10;;;;;;4994726;28;20387;-70
2022/01/18 09:35:44;;;;;;;8.93;5.77;;;6.70;68.90;;;;;;4994243;28;20050;-70
2022/01/18 09:38:10;;;;;;;8.60;5.53;;;6.80;68.70;;;;;;4994413;28;20037;-68
2022/01/18 09:40:38;;;;;;;18.43;8.43;;;;;;;;;;4994224;28;20525;-68
2022/01/18 09:43:10;;;;;;;11.00;6.90;;;6.90;68.10;;;;;;4994260;28;20109;-68
2022/01/18 09:45:36;;;;;;;17.70;8.80;;;7.00;68.70;;;;;;4993877;28;20038;-68
2022/01/18 09:48:03;;;;;;;12.43;8.10;;;7.10;69.00;;;;;;4994192;28;20027;-68
2022/01/18 09:50:33;;;;;;;11.57;5.63;;;7.10;69.50;;;;;;4994250;28;20018;-68
2022/01/18 09:53:01;;;;;;;8.43;5.40;;;7.20;69.10;;;;;;4994130;28;20034;-70
2022/01/18 09:55:28;;;;;;;8.83;4.80;;;;;;;;;;4993980;28;20034;-69
2022/01/18 09:57:54;;;;;;;7.03;5.13;;;7.30;66.80;;;;;;4993934;28;20023;-69
2022/01/18 10:00:21;;;;;;;10.10;5.47;;;;;;;;;;4994208;28;20372;-68
2022/01/18 10:02:48;;;;;;;9.03;5.37;;;7.40;65.80;;;;;;4994341;28;20030;-69
2022/01/18 10:05:23;;;;;;;7.30;4.83;;;7.40;65.80;;;;;;4993397;28;20113;-68
2022/01/18 10:08:02;;;;;;;7.63;5.33;;;7.50;65.30;;;;;;4993980;28;20027;-68
2022/01/18 10:10:43;;;;;;;8.43;5.20;;;7.60;64.60;;;;;;4993771;28;20391;-69
2022/01/18 10:13:22;;;;;;;7.50;5.00;;;7.60;64.30;;;;;;4994131;28;20104;-69
2022/01/18 10:16:05;;;;;;;8.03;4.60;;;7.60;64.20;;;;;;4993706;28;20034;-68
2022/01/18 10:18:39;;;;;;;12.05;4.72;;;7.70;64.00;;;;;;4993951;28;20105;-68
2022/01/18 10:21:07;;;;;;;5.43;3.80;;;7.70;63.90;;;;;;4993905;28;20018;-69
2022/01/18 10:23:33;;;;;;;5.93;3.97;;;7.80;63.80;;;;;;4993570;28;20033;-68
2022/01/18 10:26:15;;;;;;;6.23;4.30;;;7.80;63.20;;;;;;4993213;28;20025;-68
2022/01/18 10:28:41;;;;;;;5.53;4.20;;;7.90;62.90;;;;;;4994012;28;20423;-69
2022/01/18 10:31:25;;;;;;;10.37;4.83;;;7.90;62.80;;;;;;4993828;28;20380;-69
2022/01/18 10:34:27;;;;;;;8.97;4.20;;;8.00;62.80;;;;;;4993833;28;20038;-68
2022/01/18 10:37:03;;;;;;;6.23;3.57;;;8.10;62.80;;;;;;4954913;28;20054;-68
2022/01/18 10:39:33;;;;;;;6.07;3.57;;;8.10;61.20;;;;;;4954754;28;20027;-70
2022/01/18 10:42:01;;;;;;;4.73;3.23;;;8.10;61.10;;;;;;4954895;28;20035;-69
2022/01/18 10:44:30;;;;;;;6.00;3.97;;;8.20;60.90;;;;;;4954967;28;20435;-69
2022/01/18 10:46:57;;;;;;;8.97;4.43;;;8.20;60.90;;;;;;4954830;28;20034;-69
2022/01/18 10:49:40;;;;;;;9.07;4.67;;;8.30;61.20;;;;;;4954394;28;20056;-68
2022/01/18 10:52:24;;;;;;;8.40;4.65;;;8.30;61.20;;;;;;4954836;28;20031;-69
2022/01/18 10:54:51;;;;;;;10.00;4.30;;;8.40;60.80;;;;;;4953553;28;20053;-69
2022/01/18 10:57:25;;;;;;;10.53;4.60;;;8.40;60.60;;;;;;4954823;28;20035;-69
2022/01/18 11:00:02;;;;;;;7.30;4.10;;;8.50;60.80;;;;;;4954783;28;20388;-69
2022/01/18 11:02:35;;;;;;;8.00;3.80;;;8.60;61.20;;;;;;4954779;28;20070;-69
2022/01/18 11:05:12;;;;;;;9.17;3.80;;;8.70;60.70;;;;;;4954772;28;20038;-68
2022/01/18 11:07:39;;;;;;;6.83;3.67;;;8.70;60.00;;;;;;4954544;28;20123;-69
2022/01/18 11:10:06;;;;;;;7.40;3.70;;;8.80;59.90;;;;;;4954716;28;20052;-70
2022/01/18 11:12:53;;;;;;;7.13;3.63;;;8.90;59.90;;;;;;4954767;28;20097;-69
2022/01/18 11:15:22;;;;;;;8.40;4.73;;;9.00;59.80;;;;;;4951525;28;20143;-69
2022/01/18 11:17:52;;;;;;;7.03;3.40;;;9.10;59.40;;;;;;4950893;28;20143;-69
2022/01/18 11:20:21;;;;;;;8.27;3.43;;;9.10;58.80;;;;;;4953257;28;20034;-68
2022/01/18 11:22:50;;;;;;;6.90;4.00;;;9.20;58.90;;;;;;4954688;28;20031;-70
2022/01/18 11:25:17;;;;;;;6.00;2.97;;;9.30;58.90;;;;;;4954544;28;20031;-69
2022/01/18 11:27:48;;;;;;;4.87;3.13;;;9.30;58.40;;;;;;4954373;28;20023;-69
2022/01/18 11:30:15;;;;;;;7.97;3.30;;;9.40;58.20;;;;;;4954487;28;20465;-68
2022/01/18 11:32:42;;;;;;;4.43;3.00;;;9.50;57.90;;;;;;4954630;28;20106;-70
2022/01/18 11:35:33;;;;;;;4.80;3.20;;;9.50;57.40;;;;;;4967206;28;20384;-69
2022/01/18 11:38:09;;;;;;;5.77;3.20;;;9.60;56.90;;;;;;4986922;28;20125;-70
2022/01/18 11:40:45;;;;;;;6.67;3.23;;;9.70;57.00;;;;;;4995306;28;20376;-69
2022/01/18 11:43:11;;;;;;;4.53;2.90;;;9.70;57.00;;;;;;4996461;28;20034;-68
2022/01/18 11:45:40;;;;;;;10.43;3.40;;;9.80;56.10;;;;;;4996385;28;20040;-69
2022/01/18 11:48:11;;;;;;;5.67;3.20;;;9.80;55.90;;;;;;4996793;28;20018;-69
2022/01/18 11:50:41;;;;;;;5.50;3.10;;;9.90;56.10;;;;;;4996467;28;20105;-69
2022/01/18 11:53:26;;;;;;;6.00;2.87;;;9.90;56.60;;;;;;4996637;28;20027;-69
2022/01/18 11:55:57;;;;;;;5.40;2.70;;;9.90;55.70;;;;;;4996166;28;20495;-70
2022/01/18 11:58:24;;;;;;;8.87;2.87;;;10.00;55.00;;;;;;4996413;28;20126;-72
2022/01/18 12:00:57;;;;;;;9.73;3.10;;;10.00;55.20;;;;;;4996219;28;20475;-69
2022/01/18 12:03:27;;;;;;;;;;;10.00;54.60;;;;;;4996904;28;20438;-70
2022/01/18 12:05:56;;;;;;;5.47;2.63;;;10.10;54.40;;;;;;4996288;28;19905;-69
2022/01/18 12:08:28;;;;;;;4.13;2.77;;;10.10;54.50;;;;;;4996003;28;20039;-70
2022/01/18 12:10:55;;;;;;;4.75;2.90;;;10.20;54.10;;;;;;4996016;28;20030;-70
2022/01/18 12:13:27;;;;;;;5.60;3.30;;;10.20;54.30;;;;;;4995875;28;20019;-69
2022/01/18 12:15:57;;;;;;;4.37;2.83;;;10.30;54.10;;;;;;4995867;28;20122;-69
2022/01/18 12:18:28;;;;;;;4.07;2.40;;;10.30;54.10;;;;;;4995683;28;20742;-70
2022/01/18 12:21:01;;;;;;;4.30;2.40;;;10.30;54.00;;;;;;4995929;28;20077;-70
2022/01/18 12:23:41;;;;;;;3.73;2.33;;;10.40;53.30;;;;;;4995708;28;20281;-69
2022/01/18 12:26:29;;;;;;;4.43;2.87;;;10.40;53.10;;;;;;4995545;28;20031;-70
2022/01/18 12:34:32;;;;;;;5.23;3.00;;;10.50;52.60;;;;;;4996220;28;20023;-70
2022/01/18 12:39:50;;;;;;;5.17;3.30;;;10.60;52.70;;;;;;4995601;28;20030;-69
2022/01/18 12:45:20;;;;;;;6.25;3.08;;;;;;;;;;4995369;28;20066;-69
2022/01/18 12:47:58;;;;;;;5.63;3.03;;;10.70;51.70;;;;;;4995436;28;20034;-68
2022/01/18 12:50:33;;;;;;;6.97;3.45;;;10.80;52.20;;;;;;4995253;28;20387;-68
2022/01/18 12:52:59;;;;;;;5.40;2.70;;;10.80;52.00;;;;;;4995131;28;20030;-69
2022/01/18 12:55:37;;;;;;;3.93;2.40;;;10.80;51.90;;;;;;4995156;28;20394;-68
2022/01/18 12:58:08;;;;;;;6.57;2.87;;;10.80;51.50;;;;;;4995176;28;20483;-68
2022/01/18 13:01:02;;;;;;;3.57;2.30;;;10.80;51.60;;;;;;4995192;28;20018;-68
2022/01/18 13:03:56;;;;;;;4.07;2.83;;;10.90;51.70;;;;;;4988261;28;20054;-68
2022/01/18 13:06:30;;;;;;;6.65;3.03;;;10.90;51.70;;;;;;4993836;28;20510;-69
2022/01/18 13:08:58;;;;;;;7.70;3.05;;;10.90;51.60;;;;;;4995054;28;20109;-69
2022/01/18 13:11:25;;;;;;;7.13;2.88;;;10.90;51.40;;;;;;4995065;28;20026;-69
2022/01/18 13:14:04;;;;;;;6.93;2.83;;;10.90;51.20;;;;;;4994750;28;20049;-68
2022/01/18 13:29:51;;;;;;;4.78;2.97;;;11.00;50.90;;;;;;4994734;28;20038;-68
2022/01/18 13:32:20;;;;;;;5.70;3.05;;;11.00;51.30;;;;;;4994531;28;20105;-68
2022/01/18 13:34:48;;;;;;;5.88;2.92;;;11.00;51.40;;;;;;4994189;28;20050;-70
2022/01/18 13:37:16;;;;;;;5.63;3.22;;;10.90;51.40;;;;;;4994518;28;20494;-69
2022/01/18 13:39:47;;;;;;;5.18;3.25;;;11.00;51.60;;;;;;4994217;28;20061;-69
2022/01/18 13:42:16;;;;;;;6.70;3.47;;;11.00;51.30;;;;;;4994212;28;20034;-68
2022/01/18 13:45:12;;;;;;;4.80;2.83;;;11.00;51.20;;;;;;4994226;28;20022;-69
2022/01/18 13:47:47;;;;;;;7.40;3.40;;;11.00;51.20;;;;;;4994526;28;20038;-69
2022/01/18 13:50:46;;;;;;;7.07;3.47;;;11.00;51.30;;;;;;4994356;28;20034;-68
2022/01/18 13:53:31;;;;;;;4.65;2.75;;;11.00;51.20;;;;;;4994091;28;20089;-68
2022/01/18 13:56:18;;;;;;;4.80;3.10;;;11.00;50.20;;;;;;4994019;28;20038;-69
2022/01/18 13:58:47;;;;;;;3.92;2.83;;;11.00;50.30;;;;;;4994234;28;20029;-69
2022/01/18 14:01:14;;;;;;;4.90;2.90;;;11.00;50.60;;;;;;4993711;28;20487;-70
2022/01/18 14:03:42;;;;;;;4.43;2.72;;;11.00;50.80;;;;;;4994153;28;20039;-69
2022/01/18 14:06:11;;;;;;;5.32;3.53;;;11.00;50.70;;;;;;4993958;28;20031;-70
2022/01/18 14:08:47;;;;;;;6.60;2.80;;;11.00;50.50;;;;;;4993814;28;20026;-68
2022/01/18 14:11:18;;;;;;;4.55;2.90;;;11.00;50.60;;;;;;4993985;28;20032;-69
2022/01/18 14:13:43;;;;;;;6.07;2.97;;;11.00;50.60;;;;;;4993909;28;20033;-68
2022/01/18 14:16:29;;;;;;;6.38;2.65;;;10.90;50.50;;;;;;4993786;28;20030;-68
2022/01/18 14:18:59;;;;;;;4.25;2.80;;;10.90;49.80;;;;;;4993692;28;20022;-69
2022/01/18 14:21:37;;;;;;;6.47;2.67;;;10.90;49.70;;;;;;4993706;28;20027;-69
2022/01/18 14:24:13;;;;;;;6.20;2.60;;;10.90;50.00;;;;;;4993601;28;20014;-69
2022/01/18 14:26:54;;;;;;;7.43;3.13;;;10.90;50.40;;;;;;4993572;28;20052;-69
2022/01/18 14:29:24;;;;;;;4.37;2.63;;;10.80;50.60;;;;;;4993781;28;20027;-69
2022/01/18 14:32:06;;;;;;;4.73;3.13;;;10.80;50.60;;;;;;4993621;28;20395;-68
2022/01/18 14:34:47;;;;;;;9.10;3.00;;;10.80;50.60;;;;;;4993620;28;20064;-69
2022/01/18 14:37:13;;;;;;;4.53;2.95;;;10.80;50.70;;;;;;4992281;28;20034;-69
2022/01/18 14:39:59;;;;;;;5.30;3.03;;;10.80;50.60;;;;;;4993848;28;20482;-68
2022/01/18 14:42:28;;;;;;;5.43;3.50;;;10.80;50.60;;;;;;4993678;28;20026;-68
2022/01/18 14:47:41;;;;;;;4.95;3.50;;;10.70;50.90;;;;;;4988977;28;20037;-70
2022/01/18 14:50:10;;;;;;;6.05;3.40;;;10.70;51.20;;;;;;4993647;28;20027;-70
2022/01/18 14:52:37;;;;;;;7.03;3.50;;;10.70;51.20;;;;;;4993358;28;20106;-70
2022/01/18 14:55:04;;;;;;;5.80;3.60;;;10.60;51.30;;;;;;4993359;28;20044;-70
2022/01/18 14:57:31;;;;;;;6.00;3.80;;;10.60;51.60;;;;;;4993321;28;20053;-69
2022/01/18 14:59:57;;;;;;;7.70;3.60;;;10.60;51.90;;;;;;4993280;28;20533;-68
2022/01/18 15:02:24;;;;;;;9.30;3.67;;;10.50;52.30;;;;;;4993222;28;20467;-69
2022/01/18 15:04:50;;;;;;;5.70;3.30;;;10.50;52.60;;;;;;4993328;28;20022;-70
2022/01/18 15:07:17;;;;;;;5.35;3.47;;;10.50;52.70;;;;;;4993209;28;20093;-70
2022/01/18 15:09:43;;;;;;;9.18;3.80;;;10.40;52.40;;;;;;4993342;28;20038;-69
2022/01/18 15:12:09;;;;;;;5.53;3.83;;;10.40;51.90;;;;;;4994583;28;20049;-69
2022/01/18 15:14:35;;;;;;;4.70;3.45;;;10.40;51.90;;;;;;4996139;28;20109;-69
2022/01/18 15:17:02;;;;;;;5.70;3.75;;;10.40;52.30;;;;;;4997021;28;20038;-69
2022/01/18 15:19:29;;;;;;;6.40;3.80;;;10.40;52.70;;;;;;4997093;28;20038;-69
2022/01/18 15:21:54;;;;;;;7.50;4.50;;;10.30;52.60;;;;;;4997200;28;20022;-69
2022/01/18 15:24:21;;;;;;;7.27;4.07;;;10.30;52.80;;;;;;4996895;28;20034;-69
2022/01/18 15:26:46;;;;;;;7.00;4.43;;;10.20;52.80;;;;;;4996907;28;20030;-69